Continental, OH (45831)

4:08 PM EST on February 28, 2015 (GMT -0500)
Homer March Farms | Change Station
CLOSE
Current Station
Personal Weather Station
Location: Continental, OH
Elevation: 715 ft
Nearby Weather Stations
Active Advisory: Winter Weather Advisory Active Notice: Record Report

Elev 715 ft 41.11 °N, 84.19 °W | Updated 48 seconds ago

Partly Cloudy
Partly Cloudy
18.9 °F
Feels Like 12 °F
N
4.5
Wind Variable Wind from ENE
Gusts 4.9 mph

Today
High -- | Low -- °F
--% Chance of Precip.
Yesterday
High -- | Low -- °F
Precip. -- in
7:13 AM 6:26 PM
Waxing Gibbous, 80% visible
Pressure 30.70 in
Visibility 10.0 miles
Clouds Clear
Windchill 12 °F
Dew Point -8 °F
Humidity 29%
Rainfall 0.00 in
Snow Depth Not available.
UV 2.0 out of 12
Pollen .40 out of 12
Air Quality Not available.
Flu Activity Not available.
METAR KDFI 282053Z AUTO 10008KT 10SM CLR M07/M17 A3065 RMK AO2 SLP395 T10671167 56031

More Conditions Fewer Conditions

Pressure 30.70 in
Visibility 10.0 miles
Clouds Clear
Windchill 12 °F
Dew Point -8 °F
Humidity 29%
Rainfall 0.00 in
Snow Depth Not available.
UV 2.0 out of 12
Pollen .40 out of 12
Air Quality Not available.
Flu Activity Not available.
METAR KDFI 282053Z AUTO 10008KT 10SM CLR M07/M17 A3065 RMK AO2 SLP395 T10671167 56031

More Conditions Fewer Conditions

10-Day Weather Forecast

Almanac

Astronomy

Feb. 28, 2015 Rise Set
Actual Time
Civil Twilight
Nautical Twilight
Astronomical Twilight
Moon
Length of Visible Light
Length of Day
Tomorrow will be .
, % of the Moon is Illuminated

Today's Extremes

State Highs State Lows

Community

WunderPhotos

Upload Photos

1,801,150 photos uploaded!

WunderBlogs® & News

Nearby

Air Quality

  Air Quality AQ Index Pollutant
Not available.

Snow Depth

Station Depth Elevation

Earthquake Activity

City Distance Mag. Time & Date
Minimum magnitude displayed is 2.5.

Coastal Water Temperatures

Place Temperature

Nearby Weather Stations

Winter Weather Advisory
Statement as of 2:42 PM EST on February 28, 2015

... Winter Weather Advisory in effect from 8 PM this evening to
7 PM EST Sunday...

The National Weather Service in northern Indiana has issued a
Winter Weather Advisory for snow... which is in effect from 8 PM
this evening to 7 PM EST Sunday.

Hazardous weather...

* snow is expected to overspread the area from west to east this
   evening between 8 PM and midnight... then continue late tonight and
   through the day Sunday.

* Total snow accumulations of 4 to 6 inches are expected by
   Sunday evening.

Impacts...

* snow covered roads will result in hazardous driving conditions.

Precautionary/preparedness actions...

A Winter Weather Advisory for snow means that periods of snow
will cause primarily travel difficulties. Be prepared for snow
covered roads and limited visibilities... and use caution while
driving.